sensor_id;sensor_type;location;lat;lon;timestamp;temperature;humidity
4993;DHT22;2514;53.524;10.166;2022-10-16T00:01:35;13.40;99.90
4993;DHT22;2514;53.524;10.166;2022-10-16T00:04:03;13.40;99.90
4993;DHT22;2514;53.524;10.166;2022-10-16T00:06:31;13.40;99.90
4993;DHT22;2514;53.524;10.166;2022-10-16T00:08:58;13.40;99.90
4993;DHT22;2514;53.524;10.166;2022-10-16T00:11:27;13.30;99.90
4993;DHT22;2514;53.524;10.166;2022-10-16T00:13:58;13.30;99.90
4993;DHT22;2514;53.524;10.166;2022-10-16T00:16:26;13.20;99.90
4993;DHT22;2514;53.524;10.166;2022-10-16T00:18:54;13.20;99.90
4993;DHT22;2514;53.524;10.166;2022-10-16T00:21:23;13.10;99.90
4993;DHT22;2514;53.524;10.166;2022-10-16T00:23:52;13.10;99.90
4993;DHT22;2514;53.524;10.166;2022-10-16T00:26:20;13.10;99.90
4993;DHT22;2514;53.524;10.166;2022-10-16T00:28:47;13.00;99.90
4993;DHT22;2514;53.524;10.166;2022-10-16T00:31:18;13.00;99.90
4993;DHT22;2514;53.524;10.166;2022-10-16T00:33:45;13.00;99.90
4993;DHT22;2514;53.524;10.166;2022-10-16T00:36:14;12.90;99.90
4993;DHT22;2514;53.524;10.166;2022-10-16T00:38:43;12.90;99.90
4993;DHT22;2514;53.524;10.166;2022-10-16T00:41:12;12.90;99.90
4993;DHT22;2514;53.524;10.166;2022-10-16T00:43:42;12.90;99.90
4993;DHT22;2514;53.524;10.166;2022-10-16T00:46:17;12.80;99.90
4993;DHT22;2514;53.524;10.166;2022-10-16T00:48:48;12.80;99.90
4993;DHT22;2514;53.524;10.166;2022-10-16T00:51:19;12.80;99.90
4993;DHT22;2514;53.524;10.166;2022-10-16T00:53:49;12.80;99.90
4993;DHT22;2514;53.524;10.166;2022-10-16T00:56:17;12.80;99.90
4993;DHT22;2514;53.524;10.166;2022-10-16T00:58:44;12.70;99.90
4993;DHT22;2514;53.524;10.166;2022-10-16T01:01:11;12.70;99.90
4993;DHT22;2514;53.524;10.166;2022-10-16T01:03:40;12.70;99.90
4993;DHT22;2514;53.524;10.166;2022-10-16T01:06:18;12.70;99.90
4993;DHT22;2514;53.524;10.166;2022-10-16T01:08:59;12.60;99.90
4993;DHT22;2514;53.524;10.166;2022-10-16T01:11:35;12.60;99.90
4993;DHT22;2514;53.524;10.166;2022-10-16T01:14:11;12.70;99.90
4993;DHT22;2514;53.524;10.166;2022-10-16T01:16:48;12.60;99.90
4993;DHT22;2514;53.524;10.166;2022-10-16T01:19:44;12.70;99.90
4993;DHT22;2514;53.524;10.166;2022-10-16T01:22:20;12.70;99.90
4993;DHT22;2514;53.524;10.166;2022-10-16T01:24:53;12.60;99.90
4993;DHT22;2514;53.524;10.166;2022-10-16T01:27:25;12.60;99.90
4993;DHT22;2514;53.524;10.166;2022-10-16T01:29:56;12.60;99.90
4993;DHT22;2514;53.524;10.166;2022-10-16T01:32:31;12.60;99.90
4993;DHT22;2514;53.524;10.166;2022-10-16T01:35:04;12.60;99.90
4993;DHT22;2514;53.524;10.166;2022-10-16T01:37:38;12.60;99.90
4993;DHT22;2514;53.524;10.166;2022-10-16T01:40:09;12.60;99.90
4993;DHT22;2514;53.524;10.166;2022-10-16T01:42:41;12.60;99.90
4993;DHT22;2514;53.524;10.166;2022-10-16T01:45:12;12.60;99.90
4993;DHT22;2514;53.524;10.166;2022-10-16T01:47:40;12.60;99.90
4993;DHT22;2514;53.524;10.166;2022-10-16T01:50:09;12.60;99.90
4993;DHT22;2514;53.524;10.166;2022-10-16T01:52:40;12.60;99.90
4993;DHT22;2514;53.524;10.166;2022-10-16T01:55:12;12.60;99.90
4993;DHT22;2514;53.524;10.166;2022-10-16T01:57:47;12.60;99.90
4993;DHT22;2514;53.524;10.166;2022-10-16T02:00:17;12.60;99.90
4993;DHT22;2514;53.524;10.166;2022-10-16T02:02:49;12.60;99.90
4993;DHT22;2514;53.524;10.166;2022-10-16T02:05:22;12.50;99.90
4993;DHT22;2514;53.524;10.166;2022-10-16T02:07:51;12.60;99.90
4993;DHT22;2514;53.524;10.166;2022-10-16T02:10:18;12.50;99.90
4993;DHT22;2514;53.524;10.166;2022-10-16T02:12:50;12.50;99.90
4993;DHT22;2514;53.524;10.166;2022-10-16T02:15:21;12.40;99.90
4993;DHT22;2514;53.524;10.166;2022-10-16T02:17:48;12.50;99.90
4993;DHT22;2514;53.524;10.166;2022-10-16T02:20:19;12.50;99.90
4993;DHT22;2514;53.524;10.166;2022-10-16T02:22:49;12.50;99.90
4993;DHT22;2514;53.524;10.166;2022-10-16T02:25:22;12.50;99.90
4993;DHT22;2514;53.524;10.166;2022-10-16T02:27:55;12.50;99.90
4993;DHT22;2514;53.524;10.166;2022-10-16T02:30:27;12.50;99.90
4993;DHT22;2514;53.524;10.166;2022-10-16T02:32:56;12.50;99.90
4993;DHT22;2514;53.524;10.166;2022-10-16T02:35:25;12.40;99.90
4993;DHT22;2514;53.524;10.166;2022-10-16T02:37:53;12.50;99.90
4993;DHT22;2514;53.524;10.166;2022-10-16T02:40:21;12.50;99.90
4993;DHT22;2514;53.524;10.166;2022-10-16T02:42:51;12.40;99.90
4993;DHT22;2514;53.524;10.166;2022-10-16T02:45:20;12.40;99.90
4993;DHT22;2514;53.524;10.166;2022-10-16T02:47:48;12.40;99.90
4993;DHT22;2514;53.524;10.166;2022-10-16T02:50:16;12.30;99.90
4993;DHT22;2514;53.524;10.166;2022-10-16T02:52:43;12.30;99.90
4993;DHT22;2514;53.524;10.166;2022-10-16T02:55:10;12.30;99.90
4993;DHT22;2514;53.524;10.166;2022-10-16T02:57:37;12.30;99.90
4993;DHT22;2514;53.524;10.166;2022-10-16T03:00:09;12.30;99.90
4993;DHT22;2514;53.524;10.166;2022-10-16T03:02:39;12.30;99.90
4993;DHT22;2514;53.524;10.166;2022-10-16T03:05:07;12.30;99.90
4993;DHT22;2514;53.524;10.166;2022-10-16T03:07:35;12.20;99.90
4993;DHT22;2514;53.524;10.166;2022-10-16T03:10:02;12.20;99.90
4993;DHT22;2514;53.524;10.166;2022-10-16T03:12:29;12.10;99.90
4993;DHT22;2514;53.524;10.166;2022-10-16T03:14:56;12.10;99.90
4993;DHT22;2514;53.524;10.166;2022-10-16T03:17:25;12.10;99.90
4993;DHT22;2514;53.524;10.166;2022-10-16T03:19:52;12.00;99.90
4993;DHT22;2514;53.524;10.166;2022-10-16T03:22:19;12.00;99.90
4993;DHT22;2514;53.524;10.166;2022-10-16T03:24:46;11.90;99.90
4993;DHT22;2514;53.524;10.166;2022-10-16T03:27:13;11.90;99.90
4993;DHT22;2514;53.524;10.166;2022-10-16T03:29:40;11.90;99.90
4993;DHT22;2514;53.524;10.166;2022-10-16T03:32:07;11.90;99.90
4993;DHT22;2514;53.524;10.166;2022-10-16T03:34:36;11.90;99.90
4993;DHT22;2514;53.524;10.166;2022-10-16T03:37:03;11.80;99.90
4993;DHT22;2514;53.524;10.166;2022-10-16T03:39:30;11.80;99.90
4993;DHT22;2514;53.524;10.166;2022-10-16T03:41:57;11.80;99.90
4993;DHT22;2514;53.524;10.166;2022-10-16T03:44:24;11.80;99.90
4993;DHT22;2514;53.524;10.166;2022-10-16T03:46:51;11.80;99.90
4993;DHT22;2514;53.524;10.166;2022-10-16T03:49:18;11.80;99.90
4993;DHT22;2514;53.524;10.166;2022-10-16T03:51:46;11.80;99.90
4993;DHT22;2514;53.524;10.166;2022-10-16T03:54:13;11.80;99.90
4993;DHT22;2514;53.524;10.166;2022-10-16T03:56:40;11.80;99.90
4993;DHT22;2514;53.524;10.166;2022-10-16T03:59:07;11.80;99.90
4993;DHT22;2514;53.524;10.166;2022-10-16T04:01:34;11.80;99.90
4993;DHT22;2514;53.524;10.166;2022-10-16T04:04:01;11.70;99.90
4993;DHT22;2514;53.524;10.166;2022-10-16T04:06:28;11.70;99.90
4993;DHT22;2514;53.524;10.166;2022-10-16T04:08:56;11.70;99.90
4993;DHT22;2514;53.524;10.166;2022-10-16T04:11:23;11.70;99.90
4993;DHT22;2514;53.524;10.166;2022-10-16T04:13:50;11.70;99.90
4993;DHT22;2514;53.524;10.166;2022-10-16T04:16:17;11.80;99.90
4993;DHT22;2514;53.524;10.166;2022-10-16T04:18:44;11.70;99.90
4993;DHT22;2514;53.524;10.166;2022-10-16T04:21:11;11.70;99.90
4993;DHT22;2514;53.524;10.166;2022-10-16T04:23:38;11.70;99.90
4993;DHT22;2514;53.524;10.166;2022-10-16T04:26:07;11.70;99.90
4993;DHT22;2514;53.524;10.166;2022-10-16T04:28:35;11.70;99.90
4993;DHT22;2514;53.524;10.166;2022-10-16T04:31:04;11.70;99.90
4993;DHT22;2514;53.524;10.166;2022-10-16T04:33:31;11.70;99.90
4993;DHT22;2514;53.524;10.166;2022-10-16T04:35:58;11.70;99.90
4993;DHT22;2514;53.524;10.166;2022-10-16T04:38:26;11.60;99.90
4993;DHT22;2514;53.524;10.166;2022-10-16T04:40:53;11.70;99.90
4993;DHT22;2514;53.524;10.166;2022-10-16T04:43:22;11.60;99.90
4993;DHT22;2514;53.524;10.166;2022-10-16T04:45:49;11.70;99.90
4993;DHT22;2514;53.524;10.166;2022-10-16T04:48:17;11.70;99.90
4993;DHT22;2514;53.524;10.166;2022-10-16T04:50:44;11.70;99.90
4993;DHT22;2514;53.524;10.166;2022-10-16T04:53:11;11.60;99.90
4993;DHT22;2514;53.524;10.166;2022-10-16T04:55:38;11.60;99.90
4993;DHT22;2514;53.524;10.166;2022-10-16T04:58:05;11.60;99.90
4993;DHT22;2514;53.524;10.166;2022-10-16T05:00:34;11.60;99.90
4993;DHT22;2514;53.524;10.166;2022-10-16T05:03:01;11.60;99.90
4993;DHT22;2514;53.524;10.166;2022-10-16T05:05:31;11.60;99.90
4993;DHT22;2514;53.524;10.166;2022-10-16T05:07:58;11.50;99.90
4993;DHT22;2514;53.524;10.166;2022-10-16T05:10:25;11.50;99.90
4993;DHT22;2514;53.524;10.166;2022-10-16T05:12:52;11.40;99.90
4993;DHT22;2514;53.524;10.166;2022-10-16T05:15:19;11.40;99.90
4993;DHT22;2514;53.524;10.166;2022-10-16T05:17:51;11.40;99.90
4993;DHT22;2514;53.524;10.166;2022-10-16T05:20:19;11.40;99.90
4993;DHT22;2514;53.524;10.166;2022-10-16T05:22:46;11.30;99.90
4993;DHT22;2514;53.524;10.166;2022-10-16T05:25:13;11.30;99.90
4993;DHT22;2514;53.524;10.166;2022-10-16T05:27:40;11.30;99.90
4993;DHT22;2514;53.524;10.166;2022-10-16T05:30:08;11.30;99.90
4993;DHT22;2514;53.524;10.166;2022-10-16T05:32:35;11.20;99.90
4993;DHT22;2514;53.524;10.166;2022-10-16T05:35:04;11.30;99.90
4993;DHT22;2514;53.524;10.166;2022-10-16T05:37:32;11.30;99.90
4993;DHT22;2514;53.524;10.166;2022-10-16T05:39:59;11.20;99.90
4993;DHT22;2514;53.524;10.166;2022-10-16T05:42:26;11.20;99.90
4993;DHT22;2514;53.524;10.166;2022-10-16T05:44:53;11.30;99.90
4993;DHT22;2514;53.524;10.166;2022-10-16T05:47:20;11.30;99.90
4993;DHT22;2514;53.524;10.166;2022-10-16T05:49:47;11.30;99.90
4993;DHT22;2514;53.524;10.166;2022-10-16T05:52:16;11.40;99.90
4993;DHT22;2514;53.524;10.166;2022-10-16T05:54:43;11.40;99.90
4993;DHT22;2514;53.524;10.166;2022-10-16T05:57:10;11.40;99.90
4993;DHT22;2514;53.524;10.166;2022-10-16T05:59:37;11.30;99.90
4993;DHT22;2514;53.524;10.166;2022-10-16T06:02:04;11.30;99.90
4993;DHT22;2514;53.524;10.166;2022-10-16T06:04:31;11.30;99.90
4993;DHT22;2514;53.524;10.166;2022-10-16T06:06:58;11.30;99.90
4993;DHT22;2514;53.524;10.166;2022-10-16T06:09:28;11.20;99.90
4993;DHT22;2514;53.524;10.166;2022-10-16T06:11:55;11.20;99.90
4993;DHT22;2514;53.524;10.166;2022-10-16T06:14:22;11.20;99.90
4993;DHT22;2514;53.524;10.166;2022-10-16T06:16:49;11.10;99.90
4993;DHT22;2514;53.524;10.166;2022-10-16T06:19:16;11.10;99.90
4993;DHT22;2514;53.524;10.166;2022-10-16T06:21:44;11.10;99.90
4993;DHT22;2514;53.524;10.166;2022-10-16T06:24:11;11.10;99.90
4993;DHT22;2514;53.524;10.166;2022-10-16T06:26:40;11.10;99.90
4993;DHT22;2514;53.524;10.166;2022-10-16T06:29:08;11.10;99.90
4993;DHT22;2514;53.524;10.166;2022-10-16T06:31:35;11.10;99.90
4993;DHT22;2514;53.524;10.166;2022-10-16T06:34:03;11.10;99.90
4993;DHT22;2514;53.524;10.166;2022-10-16T06:36:31;11.10;99.90
4993;DHT22;2514;53.524;10.166;2022-10-16T06:38:58;11.10;99.90
4993;DHT22;2514;53.524;10.166;2022-10-16T06:41:25;11.10;99.90
4993;DHT22;2514;53.524;10.166;2022-10-16T06:43:53;11.10;99.90
4993;DHT22;2514;53.524;10.166;2022-10-16T06:46:22;11.10;99.90
4993;DHT22;2514;53.524;10.166;2022-10-16T06:48:50;11.10;99.90
4993;DHT22;2514;53.524;10.166;2022-10-16T06:51:19;11.20;99.90
4993;DHT22;2514;53.524;10.166;2022-10-16T06:53:48;11.20;99.90
4993;DHT22;2514;53.524;10.166;2022-10-16T06:56:20;11.20;99.90
4993;DHT22;2514;53.524;10.166;2022-10-16T06:58:48;11.30;99.90
4993;DHT22;2514;53.524;10.166;2022-10-16T07:01:21;11.30;99.90
4993;DHT22;2514;53.524;10.166;2022-10-16T07:03:49;11.40;99.90
4993;DHT22;2514;53.524;10.166;2022-10-16T07:06:17;11.50;99.90
4993;DHT22;2514;53.524;10.166;2022-10-16T07:08:46;11.60;99.90
4993;DHT22;2514;53.524;10.166;2022-10-16T07:11:15;11.70;99.90
4993;DHT22;2514;53.524;10.166;2022-10-16T07:13:44;11.90;99.90
4993;DHT22;2514;53.524;10.166;2022-10-16T07:16:14;12.10;99.90
4993;DHT22;2514;53.524;10.166;2022-10-16T07:18:45;12.80;99.90
4993;DHT22;2514;53.524;10.166;2022-10-16T07:21:15;13.50;99.90
4993;DHT22;2514;53.524;10.166;2022-10-16T07:23:45;14.00;99.90
4993;DHT22;2514;53.524;10.166;2022-10-16T07:26:12;14.40;99.90
4993;DHT22;2514;53.524;10.166;2022-10-16T07:28:39;14.60;99.90
4993;DHT22;2514;53.524;10.166;2022-10-16T07:31:08;15.00;99.90
4993;DHT22;2514;53.524;10.166;2022-10-16T07:33:39;15.20;99.90
4993;DHT22;2514;53.524;10.166;2022-10-16T07:36:07;15.20;99.90
4993;DHT22;2514;53.524;10.166;2022-10-16T07:38:34;15.30;99.90
4993;DHT22;2514;53.524;10.166;2022-10-16T07:41:03;15.30;99.90
4993;DHT22;2514;53.524;10.166;2022-10-16T07:43:32;15.20;99.90
4993;DHT22;2514;53.524;10.166;2022-10-16T07:46:00;15.10;99.90
4993;DHT22;2514;53.524;10.166;2022-10-16T07:48:28;15.00;99.90
4993;DHT22;2514;53.524;10.166;2022-10-16T07:50:58;15.00;99.90
4993;DHT22;2514;53.524;10.166;2022-10-16T07:53:26;14.90;99.90
4993;DHT22;2514;53.524;10.166;2022-10-16T07:55:58;14.90;99.90
4993;DHT22;2514;53.524;10.166;2022-10-16T07:58:25;14.80;99.90
4993;DHT22;2514;53.524;10.166;2022-10-16T08:00:53;14.90;99.90
4993;DHT22;2514;53.524;10.166;2022-10-16T08:03:24;15.10;99.90
4993;DHT22;2514;53.524;10.166;2022-10-16T08:05:52;15.30;99.90
4993;DHT22;2514;53.524;10.166;2022-10-16T08:08:21;15.50;99.90
4993;DHT22;2514;53.524;10.166;2022-10-16T08:10:48;15.60;99.90
4993;DHT22;2514;53.524;10.166;2022-10-16T08:13:15;15.60;99.90
4993;DHT22;2514;53.524;10.166;2022-10-16T08:15:42;15.70;99.90
4993;DHT22;2514;53.524;10.166;2022-10-16T08:18:11;15.70;99.90
4993;DHT22;2514;53.524;10.166;2022-10-16T08:20:38;15.60;99.90
4993;DHT22;2514;53.524;10.166;2022-10-16T08:23:06;15.80;99.90
4993;DHT22;2514;53.524;10.166;2022-10-16T08:25:36;15.70;99.90
4993;DHT22;2514;53.524;10.166;2022-10-16T08:28:04;15.50;99.90
4993;DHT22;2514;53.524;10.166;2022-10-16T08:30:31;15.50;99.90
4993;DHT22;2514;53.524;10.166;2022-10-16T08:32:59;15.60;99.90
4993;DHT22;2514;53.524;10.166;2022-10-16T08:35:26;15.60;99.90
4993;DHT22;2514;53.524;10.166;2022-10-16T08:37:53;15.80;99.90
4993;DHT22;2514;53.524;10.166;2022-10-16T08:40:22;16.20;99.90
4993;DHT22;2514;53.524;10.166;2022-10-16T08:46:11;16.40;99.90
4993;DHT22;2514;53.524;10.166;2022-10-16T08:48:46;16.80;99.90
4993;DHT22;2514;53.524;10.166;2022-10-16T08:51:19;17.40;99.90
4993;DHT22;2514;53.524;10.166;2022-10-16T08:53:52;18.10;99.90
4993;DHT22;2514;53.524;10.166;2022-10-16T08:56:21;18.50;1.00
4993;DHT22;2514;53.524;10.166;2022-10-16T08:58:51;18.40;1.00
4993;DHT22;2514;53.524;10.166;2022-10-16T09:01:20;18.30;99.90
4993;DHT22;2514;53.524;10.166;2022-10-16T09:04:02;18.40;26.10
4993;DHT22;2514;53.524;10.166;2022-10-16T09:06:43;18.80;1.00
4993;DHT22;2514;53.524;10.166;2022-10-16T09:09:30;19.20;99.90
4993;DHT22;2514;53.524;10.166;2022-10-16T09:12:12;19.50;1.00
4993;DHT22;2514;53.524;10.166;2022-10-16T09:14:53;20.20;99.90
4993;DHT22;2514;53.524;10.166;2022-10-16T09:17:39;20.30;1.00
4993;DHT22;2514;53.524;10.166;2022-10-16T09:20:27;20.90;1.00
4993;DHT22;2514;53.524;10.166;2022-10-16T09:23:10;20.80;1.00
4993;DHT22;2514;53.524;10.166;2022-10-16T09:25:43;20.40;1.00
4993;DHT22;2514;53.524;10.166;2022-10-16T09:28:13;20.10;1.00
4993;DHT22;2514;53.524;10.166;2022-10-16T09:30:42;20.00;99.90
4993;DHT22;2514;53.524;10.166;2022-10-16T09:33:11;20.40;99.90
4993;DHT22;2514;53.524;10.166;2022-10-16T09:35:40;20.70;1.00
4993;DHT22;2514;53.524;10.166;2022-10-16T09:38:20;21.30;1.00
4993;DHT22;2514;53.524;10.166;2022-10-16T09:40:48;21.70;44.40
4993;DHT22;2514;53.524;10.166;2022-10-16T09:43:21;20.70;1.00
4993;DHT22;2514;53.524;10.166;2022-10-16T09:45:59;20.60;1.00
4993;DHT22;2514;53.524;10.166;2022-10-16T09:48:30;20.40;1.00
4993;DHT22;2514;53.524;10.166;2022-10-16T09:51:02;20.90;1.00
4993;DHT22;2514;53.524;10.166;2022-10-16T09:53:41;20.20;99.90
4993;DHT22;2514;53.524;10.166;2022-10-16T09:56:10;18.70;99.90
4993;DHT22;2514;53.524;10.166;2022-10-16T09:58:42;18.50;99.90
4993;DHT22;2514;53.524;10.166;2022-10-16T10:01:14;18.80;99.90
4993;DHT22;2514;53.524;10.166;2022-10-16T10:03:43;18.90;99.90
4993;DHT22;2514;53.524;10.166;2022-10-16T10:06:23;18.60;99.90
4993;DHT22;2514;53.524;10.166;2022-10-16T10:08:56;19.30;99.90
4993;DHT22;2514;53.524;10.166;2022-10-16T10:11:41;19.50;1.00
4993;DHT22;2514;53.524;10.166;2022-10-16T10:14:23;20.00;99.90
4993;DHT22;2514;53.524;10.166;2022-10-16T10:17:10;19.80;1.00
4993;DHT22;2514;53.524;10.166;2022-10-16T10:19:40;20.20;99.90
4993;DHT22;2514;53.524;10.166;2022-10-16T10:22:24;20.70;1.00
4993;DHT22;2514;53.524;10.166;2022-10-16T10:27:47;21.70;1.00
4993;DHT22;2514;53.524;10.166;2022-10-16T10:30:24;22.60;1.00
4993;DHT22;2514;53.524;10.166;2022-10-16T10:33:13;21.70;99.90
4993;DHT22;2514;53.524;10.166;2022-10-16T10:35:51;21.30;1.00
4993;DHT22;2514;53.524;10.166;2022-10-16T10:38:34;21.20;1.00
4993;DHT22;2514;53.524;10.166;2022-10-16T10:41:20;21.20;1.00
4993;DHT22;2514;53.524;10.166;2022-10-16T10:44:06;21.50;99.90
4993;DHT22;2514;53.524;10.166;2022-10-16T10:46:42;21.80;99.90
4993;DHT22;2514;53.524;10.166;2022-10-16T10:49:35;21.70;99.90
4993;DHT22;2514;53.524;10.166;2022-10-16T10:52:30;21.50;99.90
4993;DHT22;2514;53.524;10.166;2022-10-16T10:55:09;21.00;99.90
4993;DHT22;2514;53.524;10.166;2022-10-16T10:57:49;21.00;26.70
4993;DHT22;2514;53.524;10.166;2022-10-16T11:00:28;21.80;99.90
4993;DHT22;2514;53.524;10.166;2022-10-16T11:03:06;21.90;93.00
4993;DHT22;2514;53.524;10.166;2022-10-16T11:05:44;21.00;1.00
4993;DHT22;2514;53.524;10.166;2022-10-16T11:08:17;20.80;1.00
4993;DHT22;2514;53.524;10.166;2022-10-16T11:10:51;20.20;1.00
4993;DHT22;2514;53.524;10.166;2022-10-16T11:13:26;20.50;1.00
4993;DHT22;2514;53.524;10.166;2022-10-16T11:15:59;20.90;1.00
4993;DHT22;2514;53.524;10.166;2022-10-16T11:18:33;20.70;1.00
4993;DHT22;2514;53.524;10.166;2022-10-16T11:21:11;21.20;1.00
4993;DHT22;2514;53.524;10.166;2022-10-16T11:23:44;21.90;1.00
4993;DHT22;2514;53.524;10.166;2022-10-16T11:26:18;21.90;1.00
4993;DHT22;2514;53.524;10.166;2022-10-16T11:28:48;21.90;1.00
4993;DHT22;2514;53.524;10.166;2022-10-16T11:31:21;21.50;1.00
4993;DHT22;2514;53.524;10.166;2022-10-16T11:33:57;21.10;1.00
4993;DHT22;2514;53.524;10.166;2022-10-16T11:36:35;21.30;1.00
4993;DHT22;2514;53.524;10.166;2022-10-16T11:39:13;21.30;1.00
4993;DHT22;2514;53.524;10.166;2022-10-16T11:41:49;21.70;1.00
4993;DHT22;2514;53.524;10.166;2022-10-16T11:44:44;21.00;1.00
4993;DHT22;2514;53.524;10.166;2022-10-16T11:47:26;20.80;99.90
4993;DHT22;2514;53.524;10.166;2022-10-16T11:50:01;21.00;99.90
4993;DHT22;2514;53.524;10.166;2022-10-16T11:52:38;20.20;99.90
4993;DHT22;2514;53.524;10.166;2022-10-16T11:55:15;19.60;99.90
4993;DHT22;2514;53.524;10.166;2022-10-16T11:57:47;20.00;99.90
4993;DHT22;2514;53.524;10.166;2022-10-16T12:00:22;20.50;99.90
4993;DHT22;2514;53.524;10.166;2022-10-16T12:02:56;20.30;99.90
4993;DHT22;2514;53.524;10.166;2022-10-16T12:05:33;19.80;99.90
4993;DHT22;2514;53.524;10.166;2022-10-16T12:08:08;19.80;99.90
4993;DHT22;2514;53.524;10.166;2022-10-16T12:10:38;19.70;99.90
4993;DHT22;2514;53.524;10.166;2022-10-16T12:13:28;20.20;99.90
4993;DHT22;2514;53.524;10.166;2022-10-16T12:16:19;19.70;99.90
4993;DHT22;2514;53.524;10.166;2022-10-16T12:18:48;19.10;99.90
4993;DHT22;2514;53.524;10.166;2022-10-16T12:21:17;18.90;99.90
4993;DHT22;2514;53.524;10.166;2022-10-16T12:23:50;19.40;99.90
4993;DHT22;2514;53.524;10.166;2022-10-16T12:26:24;19.50;99.90
4993;DHT22;2514;53.524;10.166;2022-10-16T12:28:52;19.60;99.90
4993;DHT22;2514;53.524;10.166;2022-10-16T12:31:20;20.10;99.90
4993;DHT22;2514;53.524;10.166;2022-10-16T12:33:58;20.50;99.90
4993;DHT22;2514;53.524;10.166;2022-10-16T12:36:28;20.90;99.90
4993;DHT22;2514;53.524;10.166;2022-10-16T12:38:58;20.80;99.90
4993;DHT22;2514;53.524;10.166;2022-10-16T12:41:28;21.10;99.90
4993;DHT22;2514;53.524;10.166;2022-10-16T12:43:55;21.70;99.90
4993;DHT22;2514;53.524;10.166;2022-10-16T12:46:35;21.40;99.90
4993;DHT22;2514;53.524;10.166;2022-10-16T12:49:15;20.20;99.90
4993;DHT22;2514;53.524;10.166;2022-10-16T12:51:50;19.70;96.20
4993;DHT22;2514;53.524;10.166;2022-10-16T12:54:20;19.40;30.40
4993;DHT22;2514;53.524;10.166;2022-10-16T12:57:03;19.70;96.70
4993;DHT22;2514;53.524;10.166;2022-10-16T12:59:42;20.20;99.90
4993;DHT22;2514;53.524;10.166;2022-10-16T13:02:42;20.60;99.90
4993;DHT22;2514;53.524;10.166;2022-10-16T13:05:25;20.70;99.90
4993;DHT22;2514;53.524;10.166;2022-10-16T13:08:11;20.20;99.90
4993;DHT22;2514;53.524;10.166;2022-10-16T13:11:00;19.40;56.20
4993;DHT22;2514;53.524;10.166;2022-10-16T13:14:09;18.90;1.00
4993;DHT22;2514;53.524;10.166;2022-10-16T13:16:54;18.60;1.00
4993;DHT22;2514;53.524;10.166;2022-10-16T13:19:30;18.40;1.00
4993;DHT22;2514;53.524;10.166;2022-10-16T13:22:05;18.30;1.00
4993;DHT22;2514;53.524;10.166;2022-10-16T13:24:51;18.30;1.00
4993;DHT22;2514;53.524;10.166;2022-10-16T13:27:33;19.00;1.00
4993;DHT22;2514;53.524;10.166;2022-10-16T13:30:11;19.50;1.00
4993;DHT22;2514;53.524;10.166;2022-10-16T13:32:44;19.40;1.00
4993;DHT22;2514;53.524;10.166;2022-10-16T13:35:19;19.00;1.00
4993;DHT22;2514;53.524;10.166;2022-10-16T13:37:48;19.00;1.00
4993;DHT22;2514;53.524;10.166;2022-10-16T13:40:20;19.30;1.00
4993;DHT22;2514;53.524;10.166;2022-10-16T13:42:51;19.20;1.00
4993;DHT22;2514;53.524;10.166;2022-10-16T13:45:20;18.90;1.00
4993;DHT22;2514;53.524;10.166;2022-10-16T13:47:48;18.70;1.00
4993;DHT22;2514;53.524;10.166;2022-10-16T13:50:17;18.50;1.00
4993;DHT22;2514;53.524;10.166;2022-10-16T13:52:45;18.50;1.00
4993;DHT22;2514;53.524;10.166;2022-10-16T13:55:13;18.50;1.00
4993;DHT22;2514;53.524;10.166;2022-10-16T13:57:41;18.40;1.00
4993;DHT22;2514;53.524;10.166;2022-10-16T14:00:21;18.30;1.00
4993;DHT22;2514;53.524;10.166;2022-10-16T14:02:57;18.20;1.00
4993;DHT22;2514;53.524;10.166;2022-10-16T14:05:26;18.30;1.00
4993;DHT22;2514;53.524;10.166;2022-10-16T14:07:54;18.30;1.00
4993;DHT22;2514;53.524;10.166;2022-10-16T14:10:24;18.30;1.00
4993;DHT22;2514;53.524;10.166;2022-10-16T14:12:57;18.40;1.00
4993;DHT22;2514;53.524;10.166;2022-10-16T14:15:27;18.40;1.00
4993;DHT22;2514;53.524;10.166;2022-10-16T14:17:56;18.40;1.00
4993;DHT22;2514;53.524;10.166;2022-10-16T14:20:28;18.40;1.00
4993;DHT22;2514;53.524;10.166;2022-10-16T14:23:01;18.30;1.00
4993;DHT22;2514;53.524;10.166;2022-10-16T14:25:31;18.20;1.00
4993;DHT22;2514;53.524;10.166;2022-10-16T14:28:13;18.30;1.00
4993;DHT22;2514;53.524;10.166;2022-10-16T14:30:52;18.20;1.00
4993;DHT22;2514;53.524;10.166;2022-10-16T14:33:23;18.30;1.00
4993;DHT22;2514;53.524;10.166;2022-10-16T14:36:01;18.30;1.00
4993;DHT22;2514;53.524;10.166;2022-10-16T14:38:30;18.30;1.00
4993;DHT22;2514;53.524;10.166;2022-10-16T14:40:59;18.20;1.00
4993;DHT22;2514;53.524;10.166;2022-10-16T14:43:32;18.30;1.00
4993;DHT22;2514;53.524;10.166;2022-10-16T14:46:03;18.10;1.00
4993;DHT22;2514;53.524;10.166;2022-10-16T14:48:33;18.10;1.00
4993;DHT22;2514;53.524;10.166;2022-10-16T14:51:00;18.10;1.00
4993;DHT22;2514;53.524;10.166;2022-10-16T14:53:27;18.10;1.00
4993;DHT22;2514;53.524;10.166;2022-10-16T14:55:54;18.10;1.00
4993;DHT22;2514;53.524;10.166;2022-10-16T14:58:22;18.10;1.00
4993;DHT22;2514;53.524;10.166;2022-10-16T15:00:50;18.10;1.00
4993;DHT22;2514;53.524;10.166;2022-10-16T15:03:19;18.00;1.00
4993;DHT22;2514;53.524;10.166;2022-10-16T15:05:46;18.00;1.00
4993;DHT22;2514;53.524;10.166;2022-10-16T15:08:13;18.10;1.00
4993;DHT22;2514;53.524;10.166;2022-10-16T15:10:42;18.00;1.00
4993;DHT22;2514;53.524;10.166;2022-10-16T15:13:12;18.00;1.00
4993;DHT22;2514;53.524;10.166;2022-10-16T15:15:42;18.00;1.00
4993;DHT22;2514;53.524;10.166;2022-10-16T15:18:10;18.10;1.00
4993;DHT22;2514;53.524;10.166;2022-10-16T15:20:39;18.10;1.00
4993;DHT22;2514;53.524;10.166;2022-10-16T15:23:12;18.00;1.00
4993;DHT22;2514;53.524;10.166;2022-10-16T15:25:42;17.80;1.00
4993;DHT22;2514;53.524;10.166;2022-10-16T15:28:11;17.70;1.00
4993;DHT22;2514;53.524;10.166;2022-10-16T15:30:40;17.60;1.00
4993;DHT22;2514;53.524;10.166;2022-10-16T15:33:12;17.50;1.00
4993;DHT22;2514;53.524;10.166;2022-10-16T15:35:42;17.50;1.00
4993;DHT22;2514;53.524;10.166;2022-10-16T15:38:11;17.40;1.00
4993;DHT22;2514;53.524;10.166;2022-10-16T15:40:39;17.30;1.00
4993;DHT22;2514;53.524;10.166;2022-10-16T15:43:07;17.10;1.00
4993;DHT22;2514;53.524;10.166;2022-10-16T15:45:34;17.00;1.00
4993;DHT22;2514;53.524;10.166;2022-10-16T15:48:01;17.00;99.90
4993;DHT22;2514;53.524;10.166;2022-10-16T15:50:30;16.90;1.00
4993;DHT22;2514;53.524;10.166;2022-10-16T15:52:59;16.80;1.00
4993;DHT22;2514;53.524;10.166;2022-10-16T15:55:26;16.70;1.00
4993;DHT22;2514;53.524;10.166;2022-10-16T15:57:53;16.60;1.00
4993;DHT22;2514;53.524;10.166;2022-10-16T16:00:20;16.50;1.00
4993;DHT22;2514;53.524;10.166;2022-10-16T16:02:50;16.30;1.00
4993;DHT22;2514;53.524;10.166;2022-10-16T16:05:19;16.20;1.00
4993;DHT22;2514;53.524;10.166;2022-10-16T16:07:47;16.10;1.00
4993;DHT22;2514;53.524;10.166;2022-10-16T16:10:16;16.10;1.00
4993;DHT22;2514;53.524;10.166;2022-10-16T16:12:46;16.00;1.00
4993;DHT22;2514;53.524;10.166;2022-10-16T16:15:15;16.00;99.90
4993;DHT22;2514;53.524;10.166;2022-10-16T16:17:42;15.90;1.00
4993;DHT22;2514;53.524;10.166;2022-10-16T16:20:10;15.80;1.00
4993;DHT22;2514;53.524;10.166;2022-10-16T16:22:37;15.80;1.00